createdAt,value
2023-04-17T00:00:48.040Z,97838.00
2023-04-17T00:03:35.076Z,97839.78
2023-04-17T00:06:22.048Z,97838.31
2023-04-17T00:09:10.009Z,97832.03
2023-04-17T00:11:57.850Z,97837.06
2023-04-17T00:14:44.810Z,97834.34
2023-04-17T00:17:31.852Z,97834.44
2023-04-17T00:20:19.059Z,97837.31
2023-04-17T00:23:07.304Z,97829.78
2023-04-17T00:25:54.251Z,97819.41
2023-04-17T00:28:41.294Z,97833.94
2023-04-17T00:31:28.311Z,97827.56
2023-04-17T00:34:15.241Z,97825.56
2023-04-17T00:37:02.242Z,97818.47
2023-04-17T00:39:49.358Z,97826.75
2023-04-17T00:42:36.427Z,97823.50
2023-04-17T00:45:23.334Z,97823.09
2023-04-17T00:48:11.216Z,97825.72
2023-04-17T00:51:03.253Z,97824.41
2023-04-17T00:53:50.362Z,97820.75
2023-04-17T00:56:37.543Z,97825.16
2023-04-17T00:59:26.459Z,97829.31
2023-04-17T01:02:13.740Z,97828.66
2023-04-17T01:05:00.751Z,97823.22
2023-04-17T01:07:47.834Z,97832.63
2023-04-17T01:10:34.857Z,97831.59
2023-04-17T01:13:21.975Z,97822.69
2023-04-17T01:16:08.931Z,97823.03
2023-04-17T01:18:56.240Z,97834.09
2023-04-17T01:21:43.203Z,97832.50
2023-04-17T01:24:30.868Z,97827.78
2023-04-17T01:27:17.871Z,97828.94
2023-04-17T01:30:05.307Z,97823.63
2023-04-17T01:32:54.210Z,97825.41
2023-04-17T01:35:41.167Z,97828.66
2023-04-17T01:38:28.090Z,97834.97
2023-04-17T01:41:15.006Z,97829.84
2023-04-17T01:44:02.115Z,97829.31
2023-04-17T01:46:49.071Z,97822.03
2023-04-17T01:49:36.022Z,97824.22
2023-04-17T01:52:22.947Z,97823.50
2023-04-17T01:55:10.259Z,97825.25
2023-04-17T01:57:58.077Z,97828.91
2023-04-17T02:00:49.004Z,97827.25
2023-04-17T02:03:36.337Z,97830.91
2023-04-17T02:06:23.460Z,97832.88
2023-04-17T02:09:10.590Z,97835.94
2023-04-17T02:11:58.015Z,97827.69
2023-04-17T02:14:44.911Z,97827.47
2023-04-17T02:17:31.906Z,97827.88
2023-04-17T02:20:18.860Z,97829.16
2023-04-17T02:23:06.915Z,97827.69
2023-04-17T02:25:53.819Z,97824.34
2023-04-17T02:28:44.015Z,97826.63
2023-04-17T02:31:31.176Z,97821.50
2023-04-17T02:34:18.160Z,97824.97
2023-04-17T02:37:05.563Z,97818.59
2023-04-17T02:39:53.888Z,97820.06
2023-04-17T02:42:40.837Z,97824.44
2023-04-17T02:45:27.810Z,97825.16
2023-04-17T02:48:15.721Z,97817.63
2023-04-17T02:51:02.692Z,97817.97
2023-04-17T02:53:49.651Z,97819.00
2023-04-17T02:56:36.574Z,97821.28
2023-04-17T02:59:23.428Z,97818.56
2023-04-17T03:02:10.578Z,97822.13
2023-04-17T03:04:57.657Z,97824.19
2023-04-17T03:07:44.661Z,97822.66
2023-04-17T03:10:31.592Z,97823.50
2023-04-17T03:13:18.515Z,97817.66
2023-04-17T03:16:06.368Z,97819.88
2023-04-17T03:18:53.372Z,97812.84
2023-04-17T03:21:40.315Z,97812.56
2023-04-17T03:24:27.415Z,97814.75
2023-04-17T03:27:14.344Z,97815.69
2023-04-17T03:30:01.296Z,97816.94
2023-04-17T03:32:48.276Z,97822.78
2023-04-17T03:35:35.435Z,97822.59
2023-04-17T03:38:22.335Z,97817.88
2023-04-17T03:41:10.311Z,97821.84
2023-04-17T03:43:57.252Z,97820.91
2023-04-17T03:46:44.238Z,97827.09
2023-04-17T03:49:31.121Z,97826.13
2023-04-17T03:52:18.066Z,97822.81
2023-04-17T03:55:05.880Z,97832.44
2023-04-17T03:57:52.861Z,97830.03
2023-04-17T04:00:39.833Z,97832.66
2023-04-17T04:03:27.071Z,97831.19
2023-04-17T04:06:14.278Z,97828.91
2023-04-17T04:09:01.191Z,97831.63
2023-04-17T04:11:48.127Z,97837.97
2023-04-17T04:14:35.059Z,97836.81
2023-04-17T04:17:22.076Z,97840.88
2023-04-17T04:20:09.395Z,97835.13
2023-04-17T04:22:57.442Z,97840.75
2023-04-17T04:25:44.407Z,97842.25
2023-04-17T04:28:31.374Z,97840.25
2023-04-17T04:31:18.859Z,97846.28
2023-04-17T04:34:07.823Z,97839.47
2023-04-17T04:36:54.906Z,97846.25
2023-04-17T04:39:43.038Z,97850.25
2023-04-17T04:42:30.157Z,97848.66
2023-04-17T04:45:17.181Z,97853.75
2023-04-17T04:48:04.203Z,97856.28
2023-04-17T04:50:51.261Z,97858.56
2023-04-17T04:53:38.259Z,97854.91
2023-04-17T04:56:25.205Z,97851.91
2023-04-17T04:59:12.527Z,97853.47
2023-04-17T05:01:59.716Z,97856.19
2023-04-17T05:04:46.878Z,97858.56
2023-04-17T05:07:33.869Z,97858.91
2023-04-17T05:10:21.385Z,97863.91
2023-04-17T05:13:08.311Z,97860.25
2023-04-17T05:15:55.336Z,97861.28
2023-04-17T05:18:44.122Z,97863.91
2023-04-17T05:21:31.487Z,97863.97
2023-04-17T05:24:18.411Z,97871.59
2023-04-17T05:27:05.535Z,97876.38
2023-04-17T05:29:52.744Z,97879.44
2023-04-17T05:32:39.738Z,97881.50
2023-04-17T05:35:27.472Z,97884.03
2023-04-17T05:38:14.408Z,97879.25
2023-04-17T05:41:02.062Z,97884.34
2023-04-17T05:43:49.020Z,97887.88
2023-04-17T05:46:35.969Z,97886.22
2023-04-17T05:49:23.276Z,97888.28
2023-04-17T05:52:10.820Z,97888.19
2023-04-17T05:54:57.778Z,97885.81
2023-04-17T05:57:44.672Z,97891.06
2023-04-17T06:00:31.845Z,97887.25
2023-04-17T06:03:19.308Z,97895.31
2023-04-17T06:06:07.017Z,97895.00
2023-04-17T06:08:54.648Z,97897.00
2023-04-17T06:11:41.604Z,97901.16
2023-04-17T06:14:28.566Z,97902.00
2023-04-17T06:17:15.803Z,97902.72
2023-04-17T06:20:03.011Z,97904.19
2023-04-17T06:22:50.851Z,97911.50
2023-04-17T06:25:38.077Z,97907.69
2023-04-17T06:28:25.061Z,97908.47
2023-04-17T06:31:12.256Z,97915.22
2023-04-17T06:33:59.395Z,97925.09
2023-04-17T06:36:46.417Z,97921.03
2023-04-17T06:39:34.192Z,97925.56
2023-04-17T06:42:21.122Z,97926.31
2023-04-17T06:45:08.578Z,97926.63
2023-04-17T06:47:55.717Z,97933.41
2023-04-17T06:50:42.674Z,97933.88
2023-04-17T06:53:29.609Z,97933.88
2023-04-17T06:56:16.641Z,97938.06
2023-04-17T06:59:03.744Z,97934.50
2023-04-17T07:01:50.907Z,97933.19
2023-04-17T07:04:38.020Z,97934.47
2023-04-17T07:07:25.460Z,97936.22
2023-04-17T07:10:12.466Z,97931.59
2023-04-17T07:12:59.596Z,97937.59
2023-04-17T07:15:53.258Z,97938.41
2023-04-17T07:18:40.306Z,97935.47
2023-04-17T07:21:27.737Z,97939.00
2023-04-17T07:24:14.647Z,97937.41
2023-04-17T07:27:03.006Z,97947.53
2023-04-17T07:29:54.664Z,97942.84
2023-04-17T07:32:41.795Z,97941.88
2023-04-17T07:35:28.900Z,97942.28
2023-04-17T07:38:16.034Z,97942.91
2023-04-17T07:41:03.190Z,97946.13
2023-04-17T07:43:50.122Z,97954.13
2023-04-17T07:46:37.237Z,97955.78
2023-04-17T07:49:24.200Z,97958.09
2023-04-17T07:52:11.113Z,97961.75
2023-04-17T07:54:58.076Z,97957.56
2023-04-17T07:57:46.555Z,97971.84
2023-04-17T08:00:33.792Z,97972.38
2023-04-17T08:03:24.233Z,97978.41
2023-04-17T08:06:11.786Z,97975.88
2023-04-17T08:08:59.914Z,97973.34
2023-04-17T08:11:56.400Z,97970.31
2023-04-17T08:14:44.443Z,97974.28
2023-04-17T08:17:33.384Z,97979.34
2023-04-17T08:20:20.723Z,97973.81
2023-04-17T08:23:07.653Z,97974.78
2023-04-17T08:25:54.640Z,97970.50
2023-04-17T08:28:41.604Z,97974.56
2023-04-17T08:31:29.111Z,97970.41
2023-04-17T08:34:16.213Z,97965.56
2023-04-17T08:37:03.123Z,97982.59
2023-04-17T08:39:52.573Z,97984.03
2023-04-17T08:42:43.521Z,97979.72
2023-04-17T08:45:30.783Z,97975.69
2023-04-17T08:48:17.760Z,97988.22
2023-04-17T08:51:04.886Z,97981.91
2023-04-17T08:53:52.124Z,97973.28
2023-04-17T08:56:39.016Z,97971.09
2023-04-17T08:59:26.035Z,97972.66
2023-04-17T09:02:13.205Z,97976.38
2023-04-17T09:05:01.122Z,97973.75
2023-04-17T09:07:51.845Z,97978.09
2023-04-17T09:10:43.925Z,97974.16
2023-04-17T09:13:39.010Z,97971.63
2023-04-17T09:16:26.001Z,97977.41
2023-04-17T09:19:13.165Z,97969.84
2023-04-17T09:22:22.716Z,97972.81
2023-04-17T09:25:20.539Z,97966.28
2023-04-17T09:28:16.106Z,97959.81
2023-04-17T09:31:05.826Z,97961.69
2023-04-17T09:34:00.721Z,97968.97
2023-04-17T09:36:53.957Z,97966.28
2023-04-17T09:39:59.011Z,97965.75
2023-04-17T09:43:03.821Z,97962.72
2023-04-17T09:45:52.365Z,97964.47
2023-04-17T09:48:40.690Z,97963.81
2023-04-17T09:51:28.114Z,97961.69
2023-04-17T09:54:16.426Z,97960.59
2023-04-17T09:57:04.519Z,97969.47
2023-04-17T09:59:51.694Z,97959.53
2023-04-17T10:02:39.995Z,97953.34
2023-04-17T10:05:29.722Z,97967.19
2023-04-17T10:08:16.907Z,97964.31
2023-04-17T10:11:08.621Z,97950.69
2023-04-17T10:14:20.021Z,97957.31
2023-04-17T10:17:36.469Z,97963.13
2023-04-17T10:20:33.662Z,97956.41
2023-04-17T10:23:34.563Z,97949.16
2023-04-17T10:26:47.965Z,97951.72
2023-04-17T10:29:56.298Z,97943.34
2023-04-17T10:32:46.184Z,97942.28
2023-04-17T10:35:36.336Z,97946.47
2023-04-17T10:38:32.706Z,97930.81
2023-04-17T10:41:20.000Z,97934.44
2023-04-17T10:44:06.993Z,97928.06
2023-04-17T10:46:53.954Z,97934.44
2023-04-17T10:50:00.437Z,97927.88
2023-04-17T10:52:47.481Z,97925.69
2023-04-17T10:55:47.148Z,97920.53
2023-04-17T10:58:37.890Z,97918.91
2023-04-17T11:02:05.024Z,97917.84
2023-04-17T11:05:06.930Z,97920.94
2023-04-17T11:07:53.900Z,97922.78
2023-04-17T11:10:41.237Z,97920.78
2023-04-17T11:13:32.042Z,97913.06
2023-04-17T11:16:21.069Z,97908.88
2023-04-17T11:19:13.332Z,97914.13
2023-04-17T11:22:02.603Z,97914.88
2023-04-17T11:24:52.093Z,97915.06
2023-04-17T11:27:38.999Z,97915.25
2023-04-17T11:30:31.772Z,97912.13
2023-04-17T11:33:18.788Z,97906.53
2023-04-17T11:36:06.707Z,97902.09
2023-04-17T11:38:55.452Z,97903.72
2023-04-17T11:41:45.221Z,97911.94
2023-04-17T11:44:32.137Z,97907.34
2023-04-17T11:47:19.768Z,97907.78
2023-04-17T11:50:07.236Z,97899.91
2023-04-17T11:52:57.563Z,97908.81
2023-04-17T11:55:45.421Z,97903.59
2023-04-17T11:58:32.408Z,97904.44
2023-04-17T12:01:21.859Z,97903.31
2023-04-17T12:04:20.769Z,97898.03
2023-04-17T12:07:20.581Z,97893.94
2023-04-17T12:10:08.478Z,97895.88
2023-04-17T12:12:55.562Z,97896.78
2023-04-17T12:15:42.735Z,97899.47
2023-04-17T12:18:29.640Z,97900.03
2023-04-17T12:21:17.261Z,97903.19
2023-04-17T12:24:04.483Z,97905.22
2023-04-17T12:26:52.462Z,97905.22
2023-04-17T12:29:44.457Z,97896.06
2023-04-17T12:32:32.355Z,97896.78
2023-04-17T12:35:20.554Z,97890.53
2023-04-17T12:38:07.591Z,97884.75
2023-04-17T12:40:54.439Z,97888.69
2023-04-17T12:43:41.682Z,97882.56
2023-04-17T12:46:28.694Z,97888.78
2023-04-17T12:49:15.884Z,97879.44
2023-04-17T12:52:03.802Z,97881.09
2023-04-17T12:54:53.127Z,97880.78
2023-04-17T12:57:40.200Z,97886.19
2023-04-17T13:00:27.109Z,97877.41
2023-04-17T13:03:14.130Z,97876.53
2023-04-17T13:06:01.504Z,97878.78
2023-04-17T13:08:48.443Z,97866.50
2023-04-17T13:11:35.681Z,97879.03
2023-04-17T13:14:22.595Z,97869.09
2023-04-17T13:17:09.683Z,97860.16
2023-04-17T13:19:56.638Z,97872.47
2023-04-17T13:22:43.575Z,97867.25
2023-04-17T13:25:32.295Z,97872.88
2023-04-17T13:28:19.193Z,97859.50
2023-04-17T13:31:06.086Z,97854.91
2023-04-17T13:33:53.195Z,97849.59
2023-04-17T13:36:40.136Z,97849.50
2023-04-17T13:39:27.245Z,97849.81
2023-04-17T13:42:16.484Z,97843.09
2023-04-17T13:45:03.866Z,97846.28
2023-04-17T13:47:50.898Z,97841.88
2023-04-17T13:50:37.836Z,97847.44
2023-04-17T13:53:24.838Z,97839.13
2023-04-17T13:56:12.705Z,97836.50
2023-04-17T13:58:59.576Z,97833.66
2023-04-17T14:01:46.510Z,97824.31
2023-04-17T14:04:33.765Z,97825.59
2023-04-17T14:07:20.834Z,97829.09
2023-04-17T14:10:08.940Z,97821.91
2023-04-17T14:12:56.033Z,97825.31
2023-04-17T14:15:43.140Z,97820.00
2023-04-17T14:18:30.077Z,97820.19
2023-04-17T14:21:17.693Z,97819.22
2023-04-17T14:24:05.416Z,97813.22
2023-04-17T14:26:52.393Z,97805.31
2023-04-17T14:29:39.314Z,97811.78
2023-04-17T14:32:26.214Z,97807.97
2023-04-17T14:35:13.416Z,97804.69
2023-04-17T14:38:00.776Z,97803.38
2023-04-17T14:40:47.668Z,97809.94
2023-04-17T14:43:34.682Z,97805.81
2023-04-17T14:46:21.647Z,97808.00
2023-04-17T14:49:09.055Z,97800.91
2023-04-17T14:51:56.103Z,97803.56
2023-04-17T14:54:43.058Z,97793.41
2023-04-17T14:57:29.997Z,97803.56
2023-04-17T15:00:17.323Z,97797.78
2023-04-17T15:03:04.495Z,97804.19
2023-04-17T15:05:52.370Z,97790.50
2023-04-17T15:08:40.418Z,97790.50
2023-04-17T15:11:27.329Z,97791.97
2023-04-17T15:14:14.314Z,97784.22
2023-04-17T15:17:03.253Z,97790.75
2023-04-17T15:19:50.341Z,97779.81
2023-04-17T15:22:37.286Z,97796.53
2023-04-17T15:25:25.158Z,97796.00
2023-04-17T15:28:12.587Z,97797.97
2023-04-17T15:30:59.600Z,97802.91
2023-04-17T15:33:47.531Z,97805.06
2023-04-17T15:36:34.401Z,97797.50
2023-04-17T15:39:21.500Z,97800.41
2023-04-17T15:42:09.582Z,97794.28
2023-04-17T15:44:57.567Z,97798.31
2023-04-17T15:47:44.501Z,97797.75
2023-04-17T15:50:31.450Z,97801.78
2023-04-17T15:53:18.367Z,97796.06
2023-04-17T15:56:06.835Z,97789.53
2023-04-17T15:58:53.733Z,97785.91
2023-04-17T16:01:40.700Z,97784.75
2023-04-17T16:04:27.923Z,97792.41
2023-04-17T16:07:16.423Z,97778.94
2023-04-17T16:10:03.430Z,97778.53
2023-04-17T16:12:50.360Z,97775.38
2023-04-17T16:15:37.305Z,97770.53
2023-04-17T16:18:24.151Z,97778.72
2023-04-17T16:21:11.407Z,97778.06
2023-04-17T16:23:58.704Z,97778.94
2023-04-17T16:26:45.669Z,97789.88
2023-04-17T16:29:32.621Z,97793.75
2023-04-17T16:32:20.615Z,97793.53
2023-04-17T16:35:07.980Z,97799.16
2023-04-17T16:37:54.879Z,97799.94
2023-04-17T16:40:41.722Z,97802.31
2023-04-17T16:43:30.378Z,97815.78
2023-04-17T16:46:24.056Z,97813.41
2023-04-17T16:49:18.730Z,97800.69
2023-04-17T16:52:05.896Z,97795.59
2023-04-17T16:54:52.826Z,97797.47
2023-04-17T16:57:42.788Z,97800.28
2023-04-17T17:00:30.154Z,97808.53
2023-04-17T17:03:17.968Z,97808.22
2023-04-17T17:06:07.032Z,97810.44
2023-04-17T17:08:55.272Z,97811.72
2023-04-17T17:11:42.459Z,97806.25
2023-04-17T17:14:29.406Z,97808.47
2023-04-17T17:17:16.353Z,97800.44
2023-04-17T17:20:03.527Z,97811.03
2023-04-17T17:22:50.446Z,97813.22
2023-04-17T17:25:37.275Z,97811.25
2023-04-17T17:28:24.240Z,97818.16
2023-04-17T17:31:11.167Z,97817.09
2023-04-17T17:34:11.935Z,97819.63
2023-04-17T17:37:09.094Z,97817.81
2023-04-17T17:39:56.058Z,97817.28
2023-04-17T17:42:45.051Z,97824.41
2023-04-17T17:45:32.083Z,97823.00
2023-04-17T17:48:20.410Z,97827.34
2023-04-17T17:51:07.555Z,97838.47
2023-04-17T17:53:55.493Z,97840.47
2023-04-17T17:56:42.429Z,97869.66
2023-04-17T17:59:29.412Z,97878.41
2023-04-17T18:02:16.458Z,97886.03
2023-04-17T18:05:03.970Z,97885.88
2023-04-17T18:07:51.155Z,97886.22
2023-04-17T18:10:38.633Z,97885.13
2023-04-17T18:13:25.944Z,97887.84
2023-04-17T18:16:12.868Z,97892.41
2023-04-17T18:19:02.057Z,97884.19
2023-04-17T18:21:49.027Z,97889.28
2023-04-17T18:24:36.290Z,97886.19
2023-04-17T18:27:23.189Z,97878.53
2023-04-17T18:30:11.485Z,97857.78
2023-04-17T18:32:58.531Z,97854.69
2023-04-17T18:35:45.846Z,97844.09
2023-04-17T18:38:34.790Z,97831.38
2023-04-17T18:41:21.792Z,97848.03
2023-04-17T18:44:08.638Z,97850.63
2023-04-17T18:46:55.574Z,97852.47
2023-04-17T18:49:42.441Z,97857.19
2023-04-17T18:52:29.333Z,97873.56
2023-04-17T18:55:17.577Z,97885.56
2023-04-17T18:58:05.369Z,97890.97
2023-04-17T19:00:52.305Z,97891.72
2023-04-17T19:03:39.516Z,97897.50
2023-04-17T19:06:26.815Z,97891.19
2023-04-17T19:09:13.733Z,97883.38
2023-04-17T19:12:00.691Z,97890.06
2023-04-17T19:14:47.597Z,97893.16
2023-04-17T19:17:34.489Z,97890.09
2023-04-17T19:20:23.332Z,97893.38
2023-04-17T19:23:10.445Z,97901.50
2023-04-17T19:25:57.909Z,97906.06
2023-04-17T19:28:47.652Z,97912.78
2023-04-17T19:31:34.707Z,97914.06
2023-04-17T19:34:21.588Z,97899.69
2023-04-17T19:37:08.526Z,97898.88
2023-04-17T19:39:56.785Z,97904.22
2023-04-17T19:42:43.898Z,97905.13
2023-04-17T19:45:32.165Z,97902.59
2023-04-17T19:48:19.093Z,97917.28
2023-04-17T19:51:06.849Z,97913.22
2023-04-17T19:53:53.731Z,97904.13
2023-04-17T19:56:40.857Z,97898.50
2023-04-17T19:59:27.855Z,97914.13
2023-04-17T20:02:15.936Z,97901.81
2023-04-17T20:05:03.443Z,97885.22
2023-04-17T20:07:50.310Z,97854.53
2023-04-17T20:10:37.260Z,97850.69
2023-04-17T20:13:24.167Z,97852.19
2023-04-17T20:16:11.110Z,97854.59
2023-04-17T20:18:58.018Z,97850.75
2023-04-17T20:21:46.844Z,97856.78
2023-04-17T20:24:34.011Z,97856.59
2023-04-17T20:27:21.037Z,97859.44
2023-04-17T20:30:08.577Z,97857.66
2023-04-17T20:32:55.653Z,97854.06
2023-04-17T20:35:42.671Z,97858.84
2023-04-17T20:38:29.664Z,97861.03
2023-04-17T20:41:16.573Z,97862.09
2023-04-17T20:44:03.540Z,97868.28
2023-04-17T20:46:50.724Z,97872.56
2023-04-17T20:49:37.980Z,97866.44
2023-04-17T20:52:24.829Z,97866.81
2023-04-17T20:55:11.906Z,97859.22
2023-04-17T20:57:58.838Z,97865.97
2023-04-17T21:01:00.118Z,97879.56
2023-04-17T21:03:48.597Z,97872.25
2023-04-17T21:06:35.590Z,97887.00
2023-04-17T21:09:23.409Z,97896.47
2023-04-17T21:12:10.340Z,97893.94
2023-04-17T21:14:57.201Z,97896.13
2023-04-17T21:17:46.907Z,97891.59
2023-04-17T21:20:34.536Z,97907.94
2023-04-17T21:23:21.633Z,97898.50
2023-04-17T21:26:08.794Z,97899.56
2023-04-17T21:28:57.353Z,97901.91
2023-04-17T21:31:44.319Z,97893.38
2023-04-17T21:34:31.248Z,97889.75
2023-04-17T21:37:18.173Z,97881.56
2023-04-17T21:40:06.041Z,97869.44
2023-04-17T21:42:52.969Z,97871.22
2023-04-17T21:45:39.913Z,97862.31
2023-04-17T21:48:27.732Z,97871.56
2023-04-17T21:51:14.650Z,97860.69
2023-04-17T21:54:01.585Z,97870.84
2023-04-17T21:56:48.966Z,97879.75
2023-04-17T21:59:36.350Z,97875.22
2023-04-17T22:02:23.356Z,97876.13
2023-04-17T22:05:11.603Z,97876.88
2023-04-17T22:07:58.614Z,97871.25
2023-04-17T22:10:45.739Z,97871.59
2023-04-17T22:13:32.679Z,97869.94
2023-04-17T22:16:19.632Z,97865.97
2023-04-17T22:19:06.784Z,97867.56
2023-04-17T22:21:53.717Z,97861.78
2023-04-17T22:24:41.769Z,97858.72
2023-04-17T22:27:29.321Z,97866.66
2023-04-17T22:30:16.384Z,97867.41
2023-04-17T22:33:03.452Z,97878.47
2023-04-17T22:35:50.633Z,97870.31
2023-04-17T22:38:37.558Z,97871.81
2023-04-17T22:41:24.509Z,97869.97
2023-04-17T22:44:11.562Z,97875.94
2023-04-17T22:46:58.665Z,97879.25
2023-04-17T22:49:45.564Z,97879.19
2023-04-17T22:52:32.503Z,97874.66
2023-04-17T22:55:19.503Z,97870.81
2023-04-17T22:58:06.415Z,97871.88
2023-04-17T23:00:53.310Z,97877.72
2023-04-17T23:03:40.215Z,97873.13
2023-04-17T23:06:28.035Z,97868.56
2023-04-17T23:09:15.151Z,97874.03
2023-04-17T23:12:02.273Z,97880.41
2023-04-17T23:14:49.307Z,97887.00
2023-04-17T23:17:36.231Z,97876.25
2023-04-17T23:20:24.975Z,97878.06
2023-04-17T23:23:12.169Z,97879.91
2023-04-17T23:25:59.152Z,97882.81
2023-04-17T23:28:46.160Z,97878.81
2023-04-17T23:31:33.089Z,97878.13
2023-04-17T23:34:20.031Z,97875.41
2023-04-17T23:37:06.979Z,97878.66
2023-04-17T23:39:53.880Z,97869.47
2023-04-17T23:42:41.466Z,97870.63
2023-04-17T23:45:28.359Z,97867.63
2023-04-17T23:48:15.462Z,97865.09
2023-04-17T23:51:02.401Z,97860.00
2023-04-17T23:53:49.397Z,97853.09
2023-04-17T23:56:36.278Z,97856.53
2023-04-17T23:59:23.228Z,97857.81
